Terminal Aerodrome Forecast
Issued by NWS Albuquerque, NM

Current Version | Previous Version | Text Only | Print | Product List | Glossary On
Versions: 1 2 3 4 5 6 7 8 9 10 11 12 13
000
FTUS45 KABQ 211700
TAFABQ
TAF
KABQ 211732Z 2118/2218 10013G23KT P6SM SCT050 SCT100
     FM212200 11014G24KT P6SM VCSH BKN060
     FM220400 09014G24KT P6SM SCT030 BKN060
     FM221500 10010KT P6SM -SHRA BKN050=

USA.gov is the U.S. government's official web portal to all federal, state and local government web resources and services.